Time;durP1;ratioP1;P1;durP2;ratioP2;P2;SDS_P1;SDS_P2;PMS_P1;PMS_P2;Temp;Humidity;BMP_temperature;BMP_pressure;BME280_temperature;BME280_humidity;BME280_pressure;Samples;Min_cycle;Max_cycle;Signal;HPM_P1;HPM_P2
2021/10/18 00:01:06;;;;;;;20.60;16.50;;;;;;;12.36;64.01;101708.19;5080787;28;20247;-69
2021/10/18 00:03:31;;;;;;;19.73;14.60;;;;;;;12.34;64.18;101702.06;5081182;28;20567;-69
2021/10/18 00:05:56;;;;;;;15.63;14.00;;;;;;;12.32;63.27;101703.75;5081471;28;20169;-69
2021/10/18 00:08:21;;;;;;;17.57;14.40;;;;;;;12.44;63.69;101696.13;5080895;28;20208;-70
2021/10/18 00:10:47;;;;;;;16.27;14.57;;;;;;;12.18;63.77;101705.22;5080447;28;20208;-70
2021/10/18 00:13:13;;;;;;;17.77;15.17;;;;;;;12.28;63.66;101712.41;5081353;28;20533;-69
2021/10/18 00:15:38;;;;;;;15.57;13.70;;;;;;;12.26;63.77;101704.53;5080729;28;20196;-69
2021/10/18 00:18:03;;;;;;;18.80;13.90;;;;;;;12.32;63.08;101706.38;5080949;28;20181;-69
2021/10/18 00:20:29;;;;;;;16.73;13.30;;;;;;;12.28;63.07;101704.56;5081212;28;20180;-69
2021/10/18 00:22:55;;;;;;;15.63;13.53;;;;;;;12.12;63.88;101716.47;5080548;28;20169;-70
2021/10/18 00:25:20;;;;;;;16.73;13.20;;;;;;;12.20;63.53;101720.09;5080818;28;20534;-70
2021/10/18 00:27:46;;;;;;;20.67;14.33;;;;;;;12.03;64.28;101722.41;5081155;28;20392;-69
2021/10/18 00:30:12;;;;;;;15.43;13.80;;;;;;;12.22;63.71;101718.41;5080600;28;20201;-71
2021/10/18 00:32:38;;;;;;;15.87;14.17;;;;;;;12.17;63.33;101719.19;5063200;28;20192;-71
2021/10/18 00:35:04;;;;;;;14.73;13.23;;;;;;;12.11;64.65;101719.94;5080842;28;20690;-69
2021/10/18 00:37:29;;;;;;;20.10;15.10;;;;;;;12.13;63.65;101726.06;5080443;28;20176;-71
2021/10/18 00:39:55;;;;;;;15.77;14.00;;;;;;;12.12;63.39;101727.81;5080332;28;20693;-72
2021/10/18 00:42:20;;;;;;;17.97;13.90;;;;;;;12.06;63.73;101727.69;5080432;28;20169;-70
2021/10/18 00:44:49;;;;;;;14.83;13.33;;;;;;;12.27;63.42;101734.16;5080671;28;20179;-71
2021/10/18 00:47:15;;;;;;;14.43;13.00;;;;;;;12.35;63.34;101729.09;5080334;28;20493;-70
2021/10/18 00:49:41;;;;;;;19.17;15.03;;;;;;;12.22;63.56;101735.84;5071297;28;20458;-71
2021/10/18 00:52:06;;;;;;;16.27;14.57;;;;;;;11.88;64.29;101740.34;5100336;28;20431;-70
2021/10/18 00:54:31;;;;;;;15.87;14.27;;;;;;;12.13;63.81;101739.13;5099691;28;20183;-70
2021/10/18 00:56:57;;;;;;;16.50;13.87;;;;;;;12.19;63.54;101744.50;5099874;28;20203;-71
2021/10/18 00:59:22;;;;;;;15.30;13.70;;;;;;;12.23;63.77;101741.09;5100410;28;20199;-71
2021/10/18 01:01:48;;;;;;;14.90;13.50;;;;;;;12.12;63.65;101734.75;5100575;28;20187;-71
2021/10/18 01:04:14;;;;;;;20.57;13.70;;;;;;;12.45;63.21;101734.50;5099620;28;20172;-71
2021/10/18 01:06:40;;;;;;;17.93;14.40;;;;;;;12.40;63.18;101732.66;5100119;28;20211;-71
2021/10/18 01:09:05;;;;;;;17.93;13.47;;;;;;;12.43;62.63;101736.22;5100569;28;20786;-70
2021/10/18 01:11:30;;;;;;;16.73;14.70;;;;;;;12.41;62.93;101730.06;5099748;28;20229;-70
2021/10/18 01:13:56;;;;;;;17.23;15.00;;;;;;;12.14;63.20;101720.00;5099977;28;20212;-70
2021/10/18 01:16:21;;;;;;;20.97;16.07;;;;;;;12.39;62.80;101726.53;5100359;28;20200;-70
2021/10/18 01:18:46;;;;;;;16.17;14.57;;;;;;;12.02;63.75;101723.25;5100046;28;20176;-70
2021/10/18 01:21:12;;;;;;;16.00;14.40;;;;;;;12.17;63.45;101716.56;5099896;28;20187;-71
2021/10/18 01:23:37;;;;;;;15.60;13.87;;;;;;;12.35;63.33;101718.63;5099437;28;20225;-70
2021/10/18 01:26:02;;;;;;;15.70;14.10;;;;;;;12.21;63.53;101719.25;5099655;28;20561;-70
2021/10/18 01:28:28;;;;;;;16.90;14.70;;;;;;;12.28;63.37;101731.56;5099717;28;20180;-70
2021/10/18 01:30:53;;;;;;;17.53;14.50;;;;;;;12.23;63.33;101737.56;5100078;28;20450;-70
2021/10/18 01:33:18;;;;;;;16.77;14.97;;;;;;;12.43;62.62;101737.94;5099665;28;20201;-71
2021/10/18 01:35:44;;;;;;;16.10;14.43;;;;;;;12.67;62.82;101729.66;5098846;28;20171;-71
2021/10/18 01:38:09;;;;;;;19.10;15.30;;;;;;;12.61;62.69;101737.38;5100949;28;20517;-73
2021/10/18 01:40:35;;;;;;;18.23;13.90;;;;;;;12.46;63.33;101743.22;5101133;28;20184;-71
2021/10/18 01:43:00;;;;;;;16.50;14.10;;;;;;;12.39;62.88;101737.00;5101028;28;20289;-71
2021/10/18 01:45:26;;;;;;;16.33;14.50;;;;;;;12.41;62.79;101737.91;5100828;28;20168;-71
2021/10/18 01:47:51;;;;;;;16.00;14.30;;;;;;;12.60;62.10;101741.75;5099361;28;20169;-70
2021/10/18 01:50:22;;;;;;;16.43;14.40;;;;;;;12.41;62.56;101743.16;5087860;28;20224;-71
2021/10/18 01:52:48;;;;;;;17.27;15.27;;;;;;;12.66;62.33;101738.34;5079328;28;20428;-70
2021/10/18 01:55:14;;;;;;;17.07;15.37;;;;;;;12.45;63.40;101733.63;5061558;28;20661;-71
2021/10/18 01:57:40;;;;;;;18.13;13.93;;;;;;;12.36;62.88;101725.63;5078762;28;20390;-71
2021/10/18 02:00:06;;;;;;;18.60;15.80;;;;;;;12.37;62.86;101730.88;5079049;28;20185;-72
2021/10/18 02:02:32;;;;;;;19.40;14.93;;;;;;;12.54;62.74;101722.44;5078704;28;20420;-72
2021/10/18 02:04:57;;;;;;;17.00;14.33;;;;;;;12.28;63.46;101715.88;5078750;28;20390;-72
2021/10/18 02:07:23;;;;;;;15.40;13.90;;;;;;;12.33;64.05;101718.59;5078906;28;20203;-72
2021/10/18 02:09:48;;;;;;;16.30;14.60;;;;;;;12.43;62.87;101717.03;5061353;28;20248;-70
2021/10/18 02:12:13;;;;;;;15.97;14.30;;;;;;;12.48;63.17;101718.00;5078378;28;20173;-70
2021/10/18 02:14:39;;;;;;;18.83;14.33;;;;;;;12.19;63.84;101717.47;5061515;28;20222;-71
2021/10/18 02:17:04;;;;;;;19.80;16.13;;;;;;;11.82;64.79;101716.72;5078674;28;20176;-71
2021/10/18 02:19:29;;;;;;;18.43;15.83;;;;;;;11.97;64.26;101719.66;5078593;28;20490;-71
2021/10/18 02:21:55;;;;;;;21.10;16.27;;;;;;;11.98;64.38;101716.19;5078529;28;20185;-71
2021/10/18 02:24:20;;;;;;;16.97;14.93;;;;;;;11.89;64.47;101713.38;5078535;28;20177;-72
2021/10/18 02:26:45;;;;;;;18.27;15.50;;;;;;;11.84;65.00;101715.00;5060698;28;20165;-71
2021/10/18 02:29:11;;;;;;;16.77;15.13;;;;;;;11.85;64.90;101716.78;5079119;28;20536;-72
2021/10/18 02:31:36;;;;;;;16.57;14.77;;;;;;;11.91;64.83;101716.91;5078209;28;20236;-71
2021/10/18 02:34:02;;;;;;;19.07;15.33;;;;;;;11.90;65.06;101708.16;5078248;28;20176;-71
2021/10/18 02:36:28;;;;;;;18.23;14.17;;;;;;;12.08;65.04;101704.19;5078870;28;20476;-71
2021/10/18 02:38:54;;;;;;;17.90;15.80;;;;;;;11.86;64.29;101716.81;5078229;28;20406;-72
2021/10/18 02:41:19;;;;;;;20.27;16.17;;;;;;;11.88;64.37;101712.50;5077993;28;20199;-71
2021/10/18 02:43:44;;;;;;;19.40;16.00;;;;;;;11.88;64.57;101716.81;5061065;28;20226;-70
2021/10/18 02:46:10;;;;;;;18.90;15.90;;;;;;;11.83;64.71;101715.88;5078065;28;20168;-69
2021/10/18 02:48:35;;;;;;;16.43;14.73;;;;;;;11.94;64.77;101706.50;5078079;28;20180;-70
2021/10/18 02:51:00;;;;;;;19.00;17.03;;;;;;;12.08;64.68;101705.09;5077628;28;20236;-70
2021/10/18 02:53:26;;;;;;;17.73;16.00;;;;;;;11.88;65.01;101717.72;5060503;28;20189;-70
2021/10/18 02:55:51;;;;;;;18.50;15.57;;;;;;;11.90;64.68;101716.00;5078207;28;20168;-70
2021/10/18 02:58:16;;;;;;;19.30;16.57;;;;;;;11.89;64.64;101714.28;5078140;28;20227;-70
2021/10/18 03:00:42;;;;;;;17.90;15.07;;;;;;;11.63;64.96;101724.16;5077920;28;20415;-71
2021/10/18 03:03:08;;;;;;;17.27;14.87;;;;;;;12.09;64.31;101716.41;5078474;28;20165;-70
2021/10/18 03:05:34;;;;;;;22.20;16.13;;;;;;;12.00;64.75;101717.13;5060704;28;20467;-70
2021/10/18 03:07:59;;;;;;;23.00;19.00;;;;;;;12.03;64.90;101717.19;5078058;28;20416;-70
2021/10/18 03:10:24;;;;;;;19.10;16.47;;;;;;;11.92;64.85;101721.25;5078317;28;20189;-70
2021/10/18 03:12:50;;;;;;;18.90;15.70;;;;;;;11.78;65.50;101721.88;5077912;28;20497;-70
2021/10/18 03:15:15;;;;;;;21.20;16.93;;;;;;;11.74;65.39;101725.25;5077975;28;20238;-70
2021/10/18 03:17:41;;;;;;;17.50;15.70;;;;;;;11.60;66.09;101718.88;5078249;28;20248;-69
2021/10/18 03:20:08;;;;;;;19.77;16.13;;;;;;;12.05;64.58;101715.47;5077717;28;20255;-69
2021/10/18 03:22:33;;;;;;;17.53;15.63;;;;;;;12.00;65.06;101722.34;5077938;28;20179;-69
2021/10/18 03:24:59;;;;;;;20.63;16.20;;;;;;;11.94;65.24;101723.09;5078220;28;20476;-70
2021/10/18 03:27:24;;;;;;;19.00;16.23;;;;;;;12.11;65.82;101720.81;5077827;28;20224;-70
2021/10/18 03:29:50;;;;;;;19.70;17.57;;;;;;;12.09;64.81;101719.91;5077732;28;20192;-70
2021/10/18 03:32:15;;;;;;;18.53;16.50;;;;;;;11.80;65.40;101729.75;5078681;28;20541;-70
2021/10/18 03:34:40;;;;;;;19.37;16.37;;;;;;;11.89;65.67;101731.66;5064078;28;20181;-70
2021/10/18 03:37:06;;;;;;;17.80;15.87;;;;;;;11.80;65.42;101729.75;5081635;28;20259;-72
2021/10/18 03:39:32;;;;;;;22.50;16.20;;;;;;;12.00;65.05;101732.81;5081772;28;20439;-70
2021/10/18 03:41:57;;;;;;;18.77;15.83;;;;;;;11.87;65.41;101731.63;5063934;28;20591;-69
2021/10/18 03:44:22;;;;;;;18.63;15.70;;;;;;;11.96;65.38;101730.94;5081617;28;20161;-70
2021/10/18 03:46:47;;;;;;;20.90;16.57;;;;;;;12.09;65.00;101730.34;5081905;28;20404;-70
2021/10/18 03:49:13;;;;;;;17.73;15.80;;;;;;;11.86;65.50;101739.44;5081376;28;20180;-70
2021/10/18 03:51:39;;;;;;;21.03;16.97;;;;;;;12.00;65.30;101735.41;5081136;28;20197;-69
2021/10/18 03:54:04;;;;;;;22.77;16.40;;;;;;;11.83;65.62;101742.00;5081729;28;20445;-69
2021/10/18 03:56:30;;;;;;;18.27;16.40;;;;;;;12.08;64.91;101741.69;5081164;28;20260;-70
2021/10/18 03:58:55;;;;;;;18.97;16.83;;;;;;;11.89;65.79;101740.41;5081179;28;20173;-70
2021/10/18 04:01:20;;;;;;;17.60;15.50;;;;;;;11.68;66.42;101740.81;5081490;28;20205;-71
2021/10/18 04:03:46;;;;;;;20.43;16.03;;;;;;;11.65;66.26;101737.25;5081261;28;20199;-71
2021/10/18 04:06:11;;;;;;;18.70;15.83;;;;;;;11.63;66.05;101739.84;5084555;28;20173;-71
2021/10/18 04:08:37;;;;;;;21.57;16.30;;;;;;;11.48;66.34;101737.78;5085603;28;20169;-71
2021/10/18 04:11:02;;;;;;;19.07;16.00;;;;;;;11.69;66.49;101739.97;5080687;28;20205;-71
2021/10/18 04:13:28;;;;;;;19.43;15.50;;;;;;;11.84;65.73;101735.91;5080844;28;20429;-70
2021/10/18 04:15:53;;;;;;;19.20;15.13;;;;;;;12.01;66.14;101736.28;5081318;28;20176;-71
2021/10/18 04:18:19;;;;;;;16.83;15.17;;;;;;;11.95;65.18;101737.06;5081145;28;20272;-71
2021/10/18 04:20:45;;;;;;;17.80;15.90;;;;;;;11.76;66.22;101738.38;5082059;28;20257;-71
2021/10/18 04:23:10;;;;;;;21.13;15.80;;;;;;;11.70;65.84;101733.88;5082215;28;20191;-70
2021/10/18 04:25:35;;;;;;;17.73;14.87;;;;;;;11.94;65.32;101732.63;5081609;28;20444;-70
2021/10/18 04:28:00;;;;;;;17.40;15.37;;;;;;;11.95;65.35;101737.06;5080676;28;20491;-70
2021/10/18 04:30:26;;;;;;;17.03;15.23;;;;;;;11.77;65.76;101735.78;5081351;28;20471;-70
2021/10/18 04:32:51;;;;;;;18.07;15.70;;;;;;;11.77;66.03;101738.41;5063047;28;20176;-70
2021/10/18 04:35:16;;;;;;;16.73;14.93;;;;;;;11.70;65.74;101743.47;5080506;28;20522;-70
2021/10/18 04:37:42;;;;;;;18.87;16.87;;;;;;;11.87;66.13;101738.59;5081165;28;20170;-70
2021/10/18 04:40:07;;;;;;;21.43;15.30;;;;;;;11.92;65.78;101734.31;5080266;28;20192;-71
2021/10/18 04:42:33;;;;;;;19.77;15.80;;;;;;;11.80;65.73;101738.47;5080297;28;20408;-71
2021/10/18 04:44:58;;;;;;;18.27;14.80;;;;;;;11.57;66.81;101742.34;5080467;28;20434;-71
2021/10/18 04:47:23;;;;;;;18.40;15.63;;;;;;;11.74;66.00;101740.94;5062797;28;20495;-71
2021/10/18 04:49:49;;;;;;;19.07;15.70;;;;;;;11.62;66.39;101745.91;5079763;28;20318;-70
2021/10/18 04:52:14;;;;;;;17.83;15.63;;;;;;;11.63;66.01;101743.31;5080598;28;20184;-71
2021/10/18 04:54:39;;;;;;;17.93;15.80;;;;;;;11.64;66.16;101739.00;5080100;28;20225;-71
2021/10/18 04:57:05;;;;;;;20.40;17.10;;;;;;;11.84;65.58;101743.75;5080058;28;20169;-71
2021/10/18 04:59:30;;;;;;;22.00;16.03;;;;;;;11.64;66.40;101741.59;5080213;28;20295;-71
2021/10/18 05:01:55;;;;;;;22.17;16.77;;;;;;;11.81;65.67;101749.78;5079892;28;20184;-70
2021/10/18 05:04:21;;;;;;;17.50;15.70;;;;;;;11.62;66.28;101761.56;5079811;28;20415;-70
2021/10/18 05:06:46;;;;;;;19.10;15.93;;;;;;;11.85;65.79;101755.97;5080369;28;20169;-71
2021/10/18 05:09:11;;;;;;;24.20;16.63;;;;;;;11.70;66.17;101770.47;5079688;28;20585;-71
2021/10/18 05:11:37;;;;;;;23.00;16.50;;;;;;;11.79;66.23;101760.22;5079532;28;20269;-70
2021/10/18 05:14:02;;;;;;;19.20;16.83;;;;;;;11.82;65.79;101768.97;5079986;28;20177;-71
2021/10/18 05:16:28;;;;;;;18.80;16.90;;;;;;;11.75;65.88;101771.44;5079577;28;20439;-70
2021/10/18 05:18:53;;;;;;;20.07;17.33;;;;;;;11.82;65.56;101768.97;5079463;28;20177;-71
2021/10/18 05:21:18;;;;;;;20.80;16.57;;;;;;;11.88;65.65;101761.25;5079742;28;20211;-70
2021/10/18 05:23:43;;;;;;;19.07;16.00;;;;;;;11.84;65.72;101762.94;5079542;28;20180;-70
2021/10/18 05:26:09;;;;;;;20.10;16.47;;;;;;;11.73;66.21;101764.41;5079397;28;20180;-71
2021/10/18 05:28:34;;;;;;;20.03;16.07;;;;;;;11.67;66.41;101770.41;5079713;28;20203;-70
2021/10/18 05:30:59;;;;;;;21.13;15.37;;;;;;;11.99;65.32;101766.72;5079062;28;20645;-70
2021/10/18 05:33:25;;;;;;;20.17;16.50;;;;;;;11.78;66.01;101779.38;5079241;28;20234;-71
2021/10/18 05:35:50;;;;;;;18.60;16.60;;;;;;;11.91;65.43;101774.41;5079755;28;20177;-70
2021/10/18 05:38:17;;;;;;;20.17;17.00;;;;;;;11.92;65.48;101763.06;5079091;28;20180;-70
2021/10/18 05:40:43;;;;;;;17.37;15.53;;;;;;;11.84;65.48;101773.38;5078917;28;20168;-70
2021/10/18 05:43:08;;;;;;;21.67;15.67;;;;;;;12.09;64.88;101774.78;5079366;28;20756;-71
2021/10/18 05:45:34;;;;;;;20.47;16.13;;;;;;;11.84;65.45;101769.88;5078920;28;20181;-71
2021/10/18 05:48:01;;;;;;;19.83;16.67;;;;;;;11.90;65.16;101767.41;5078931;28;20178;-71
2021/10/18 05:50:33;;;;;;;21.53;17.30;;;;;;;11.84;65.02;101769.88;5078831;28;20464;-71
2021/10/18 05:52:59;;;;;;;18.40;16.20;;;;;;;11.92;64.83;101779.66;5078983;28;20396;-71
2021/10/18 05:55:24;;;;;;;19.00;16.43;;;;;;;11.87;65.03;101772.56;5078237;28;20411;-70
2021/10/18 05:57:52;;;;;;;18.63;15.10;;;;;;;11.86;64.96;101781.25;5078753;28;20268;-70
2021/10/18 06:00:18;;;;;;;18.20;15.73;;;;;;;11.74;65.19;101782.72;5078569;28;20177;-71
2021/10/18 06:02:44;;;;;;;17.93;16.03;;;;;;;11.70;65.15;101780.03;5061805;28;20381;-70
2021/10/18 06:05:09;;;;;;;18.60;15.80;;;;;;;11.76;65.17;101783.66;5078688;28;20430;-71
2021/10/18 06:07:34;;;;;;;16.40;14.63;;;;;;;11.96;64.59;101776.28;5078424;28;20244;-70
2021/10/18 06:10:00;;;;;;;19.30;15.30;;;;;;;11.87;64.60;101785.63;5078842;28;20458;-71
2021/10/18 06:12:25;;;;;;;17.20;15.40;;;;;;;11.87;64.56;101790.88;5078527;28;20184;-71
2021/10/18 06:14:50;;;;;;;17.30;15.60;;;;;;;11.69;64.68;101800.06;5078612;28;20496;-71
2021/10/18 06:17:16;;;;;;;18.60;15.53;;;;;;;11.87;64.42;101798.69;5079087;28;20204;-70
2021/10/18 06:19:41;;;;;;;17.13;15.33;;;;;;;11.80;64.30;101801.16;5078435;28;20188;-70
2021/10/18 06:22:06;;;;;;;17.10;15.27;;;;;;;11.90;63.90;101799.63;5078153;28;20538;-71
2021/10/18 06:24:34;;;;;;;18.10;16.30;;;;;;;11.88;64.01;101806.56;5078633;28;20469;-71
2021/10/18 06:26:59;;;;;;;18.77;16.50;;;;;;;11.80;64.15;101813.34;5078497;28;20177;-70
2021/10/18 06:29:26;;;;;;;22.27;17.70;;;;;;;11.96;63.64;101801.50;5081952;28;20416;-70
2021/10/18 06:31:52;;;;;;;20.13;15.77;;;;;;;12.06;63.45;101806.09;5089454;28;20553;-71
2021/10/18 06:34:17;;;;;;;20.47;17.10;;;;;;;11.98;63.50;101812.03;5085643;28;20426;-71
2021/10/18 06:36:43;;;;;;;16.50;14.80;;;;;;;11.90;63.83;101812.69;5078090;28;20521;-71
2021/10/18 06:39:08;;;;;;;18.90;16.90;;;;;;;12.22;62.75;101809.03;5095833;28;20194;-71
2021/10/18 06:41:33;;;;;;;16.93;15.20;;;;;;;12.17;62.02;101810.66;5098251;28;20178;-71
2021/10/18 06:43:58;;;;;;;17.97;16.07;;;;;;;12.28;62.26;101812.63;5098386;28;20176;-70
2021/10/18 06:46:24;;;;;;;17.27;15.40;;;;;;;12.24;62.32;101805.56;5091916;28;20187;-71
2021/10/18 06:48:49;;;;;;;16.50;14.73;;;;;;;12.28;62.30;101807.41;5078106;28;20173;-70
2021/10/18 06:51:14;;;;;;;17.73;15.00;;;;;;;12.53;61.52;101815.75;5077575;28;20604;-70
2021/10/18 06:53:40;;;;;;;18.43;15.23;;;;;;;12.40;61.41;101817.22;5078544;28;20176;-71
2021/10/18 06:56:06;;;;;;;17.83;15.93;;;;;;;12.77;60.51;101820.53;5078729;28;20173;-72
2021/10/18 06:58:32;;;;;;;16.60;14.20;;;;;;;12.57;61.05;101821.88;5079144;28;20164;-73
2021/10/18 07:00:57;;;;;;;17.37;15.07;;;;;;;12.46;61.95;101830.44;5078741;28;20447;-70
2021/10/18 07:03:23;;;;;;;18.37;14.93;;;;;;;12.41;61.64;101836.44;5084218;28;20493;-70
2021/10/18 07:05:48;;;;;;;19.43;14.80;;;;;;;12.69;60.99;101832.59;5098021;28;20175;-70
2021/10/18 07:08:15;;;;;;;15.83;14.20;;;;;;;12.63;61.01;101845.56;5102551;28;20243;-71
2021/10/18 07:10:41;;;;;;;16.67;14.87;;;;;;;12.95;59.76;101833.06;5102076;28;20196;-74
2021/10/18 07:13:09;;;;;;;15.83;14.03;;;;;;;12.77;60.32;101838.88;5102154;28;20416;-72
2021/10/18 07:15:38;;;;;;;16.87;14.63;;;;;;;13.28;59.16;101841.44;5102429;28;20164;-72
2021/10/18 07:18:04;;;;;;;27.27;14.03;;;;;;;12.83;59.97;101843.31;5102020;28;20409;-72
2021/10/18 07:20:29;;;;;;;16.73;13.30;;;;;;;12.89;59.89;101848.63;5101852;28;20385;-73
2021/10/18 07:22:58;;;;;;;15.60;13.90;;;;;;;13.14;59.24;101846.47;5085139;28;20416;-69
2021/10/18 07:25:24;;;;;;;16.00;13.70;;;;;;;13.14;59.27;101849.09;5101847;28;20165;-69
2021/10/18 07:27:49;;;;;;;18.27;14.53;;;;;;;13.56;57.91;101849.78;5101822;28;20410;-69
2021/10/18 07:30:14;;;;;;;16.80;15.20;;;;;;;13.42;58.21;101853.06;5084093;28;20192;-70
2021/10/18 07:32:43;;;;;;;16.53;14.93;;;;;;;13.52;58.10;101856.72;5101696;28;20164;-69
2021/10/18 07:35:08;;;;;;;15.13;13.63;;;;;;;13.69;58.04;101854.31;5101767;28;20180;-70
2021/10/18 07:37:34;;;;;;;14.77;13.27;;;;;;;13.48;57.91;101855.78;5077630;28;20663;-69
2021/10/18 07:39:59;;;;;;;15.10;13.50;;;;;;;13.39;58.49;101857.38;5081423;28;20410;-69
2021/10/18 07:42:25;;;;;;;18.20;13.90;;;;;;;13.37;58.70;101854.75;5081299;28;20526;-69
2021/10/18 07:44:50;;;;;;;14.20;12.50;;;;;;;13.50;58.54;101860.16;5081588;28;20581;-68
2021/10/18 07:47:15;;;;;;;15.07;13.10;;;;;;;13.16;58.92;101864.81;5081301;28;20462;-70
2021/10/18 07:49:42;;;;;;;14.93;13.43;;;;;;;13.38;58.58;101859.13;5080869;28;20493;-70
2021/10/18 07:52:11;;;;;;;15.20;13.50;;;;;;;13.47;57.92;101858.38;5081331;28;20203;-68
2021/10/18 07:54:38;;;;;;;15.50;13.90;;;;;;;13.16;58.83;101865.69;5064327;28;20397;-70
2021/10/18 07:57:04;;;;;;;20.57;14.40;;;;;;;13.40;58.69;101861.75;5063527;28;20834;-69
2021/10/18 07:59:29;;;;;;;15.97;14.37;;;;;;;13.44;58.14;101869.69;5081635;28;20402;-69
2021/10/18 08:01:55;;;;;;;15.03;13.43;;;;;;;13.47;58.38;101867.09;5080890;28;20180;-70
2021/10/18 08:04:20;;;;;;;15.20;13.57;;;;;;;13.22;58.30;101870.16;5080844;28;20165;-69
2021/10/18 08:06:46;;;;;;;15.03;13.50;;;;;;;13.21;58.78;101876.25;5081281;28;20388;-69
2021/10/18 08:09:12;;;;;;;17.37;13.30;;;;;;;13.10;59.06;101890.03;5063459;28;20169;-69
2021/10/18 08:11:38;;;;;;;15.47;14.00;;;;;;;13.32;59.18;101891.28;5080632;28;20200;-68
2021/10/18 08:14:03;;;;;;;15.93;14.37;;;;;;;13.03;59.88;101890.78;5081410;28;20410;-69
2021/10/18 08:16:29;;;;;;;15.10;13.60;;;;;;;13.01;59.91;101889.88;5080766;28;20252;-70
2021/10/18 08:18:54;;;;;;;13.80;12.60;;;;;;;12.90;59.88;101897.53;5079853;28;20290;-69
2021/10/18 08:21:19;;;;;;;14.87;12.50;;;;;;;13.00;59.90;101893.34;5080639;28;20192;-69
2021/10/18 08:23:45;;;;;;;15.87;13.23;;;;;;;13.34;58.90;101893.94;5080450;28;20180;-69
2021/10/18 08:26:10;;;;;;;18.73;14.50;;;;;;;13.26;59.29;101896.44;5080607;28;20522;-70
2021/10/18 08:28:36;;;;;;;16.20;14.43;;;;;;;13.38;59.05;101900.13;5080841;28;20164;-69
2021/10/18 08:31:01;;;;;;;15.57;13.97;;;;;;;13.55;58.03;101890.81;5080330;28;20200;-69
2021/10/18 08:33:27;;;;;;;19.73;13.83;;;;;;;13.96;57.90;101897.53;5080450;28;20177;-68
2021/10/18 08:35:52;;;;;;;14.90;13.30;;;;;;;13.65;58.16;101899.69;5081155;28;20161;-70
2021/10/18 08:38:19;;;;;;;15.10;13.57;;;;;;;14.06;57.17;101894.19;5094223;28;20184;-69
2021/10/18 08:45:49;;;;;;;18.40;14.87;;;;;;;13.76;58.33;101894.63;5100907;28;20385;-69
2021/10/18 08:48:15;;;;;;;14.67;13.17;;;;;;;14.24;57.43;101895.31;5101025;28;20440;-71
2021/10/18 08:50:40;;;;;;;13.80;12.50;;;;;;;14.08;57.14;101892.44;5107973;28;20226;-71
2021/10/18 08:53:06;;;;;;;15.70;12.40;;;;;;;13.89;58.34;101896.56;5119906;28;20175;-69
2021/10/18 08:55:36;;;;;;;14.70;13.30;;;;;;;13.43;59.04;101907.19;5121254;28;20547;-71
2021/10/18 08:58:03;;;;;;;16.10;14.47;;;;;;;13.44;59.44;101901.13;5120580;28;20518;-70
2021/10/18 09:00:38;;;;;;;15.00;13.40;;;;;;;13.67;58.77;101892.75;5120315;27;20400;-70
2021/10/18 09:03:18;;;;;;;17.10;14.13;;;;;;;13.36;59.46;101900.13;5120423;28;20425;-70
2021/10/18 09:05:44;;;;;;;14.47;12.93;;;;;;;13.55;59.34;101898.66;5119878;28;20431;-70
2021/10/18 09:08:09;;;;;;;15.63;13.47;;;;;;;13.70;58.57;101908.50;5119781;28;20488;-71
2021/10/18 09:10:35;;;;;;;16.17;14.03;;;;;;;13.52;59.54;101903.88;5119488;28;20226;-71
2021/10/18 09:13:11;;;;;;;14.53;13.03;;;;;;;13.42;59.82;101901.94;5119935;28;20210;-71
2021/10/18 09:15:36;;;;;;;14.10;12.70;;;;;;;13.88;58.61;101900.06;5120570;28;20500;-70
2021/10/18 09:18:01;;;;;;;15.40;12.73;;;;;;;13.98;58.51;101901.06;5120367;28;20500;-70
2021/10/18 09:20:33;;;;;;;13.43;12.13;;;;;;;13.95;58.52;101907.16;5120088;28;20166;-71
2021/10/18 09:23:18;;;;;;;16.33;13.00;;;;;;;14.24;57.99;101909.28;5120222;28;20251;-70
2021/10/18 09:25:44;;;;;;;16.43;14.47;;;;;;;14.28;57.73;101905.84;5120317;28;20364;-71
2021/10/18 09:28:17;;;;;;;14.73;13.33;;;;;;;14.93;55.96;101911.00;5120394;28;20838;-68
2021/10/18 09:30:47;;;;;;;13.23;11.93;;;;;;;14.78;56.32;101904.72;5117912;28;20207;-71
2021/10/18 09:33:14;;;;;;;14.07;12.57;;;;;;;14.57;57.03;101907.06;5120177;28;20387;-71
2021/10/18 09:35:40;;;;;;;13.13;11.93;;;;;;;14.71;56.65;101917.75;5119347;28;20496;-70
2021/10/18 09:38:10;;;;;;;15.20;13.60;;;;;;;14.23;57.70;101914.50;5110217;28;20504;-70
2021/10/18 09:40:37;;;;;;;14.63;13.03;;;;;;;14.67;57.19;101911.59;5101192;28;20393;-70
2021/10/18 09:45:38;;;;;;;14.90;13.30;;;;;;;14.83;56.16;101907.41;5099525;28;20464;-70
2021/10/18 10:53:21;;;;;;;15.20;11.10;;;;;;;16.29;52.54;101893.63;5098137;28;20444;-70
2021/10/18 10:55:47;;;;;;;13.40;11.23;;;;;;;15.96;52.67;101900.47;5098266;28;20423;-70
2021/10/18 10:58:33;;;;;;;11.43;10.33;;;;;;;16.38;51.34;101893.66;5098106;28;20428;-71
2021/10/18 11:01:00;;;;;;;10.90;9.90;;;;;;;16.24;52.09;101895.38;5097906;28;20200;-70
2021/10/18 11:03:30;;;;;;;14.83;10.30;;;;;;;16.25;51.63;101899.75;5097962;28;20428;-70
2021/10/18 11:06:02;;;;;;;11.53;10.33;;;;;;;16.33;51.42;101896.28;5080406;28;20479;-70
2021/10/18 11:08:29;;;;;;;11.57;10.57;;;;;;;16.04;52.36;101904.03;5098088;28;20803;-71
2021/10/18 11:10:54;;;;;;;12.93;9.93;;;;;;;16.32;51.50;101896.28;5097832;28;20515;-70
2021/10/18 11:13:19;;;;;;;11.10;10.00;;;;;;;16.54;50.98;101891.09;5098208;28;20418;-71
2021/10/18 11:15:45;;;;;;;13.07;10.80;;;;;;;16.56;51.54;101895.50;5080841;28;20164;-70
2021/10/18 11:18:12;;;;;;;12.13;10.87;;;;;;;16.66;50.88;101889.38;5097920;28;20180;-71
2021/10/18 11:20:38;;;;;;;12.17;10.87;;;;;;;16.30;51.35;101898.00;5097994;28;20172;-71
2021/10/18 11:23:04;;;;;;;12.30;11.10;;;;;;;16.71;50.33;101893.78;5098389;28;20424;-71
2021/10/18 11:25:33;;;;;;;9.93;8.90;;;;;;;16.33;51.65;101887.50;5097912;28;20179;-72
2021/10/18 11:28:03;;;;;;;10.00;9.10;;;;;;;16.02;52.18;101899.63;5097819;28;20199;-72
2021/10/18 11:30:30;;;;;;;10.90;9.90;;;;;;;16.38;50.93;101891.03;5097713;28;20539;-72
2021/10/18 11:33:02;;;;;;;10.70;9.60;;;;;;;16.56;51.47;101891.97;5097763;28;20422;-72
2021/10/18 11:35:29;;;;;;;11.83;9.73;;;;;;;16.25;52.18;101897.13;5080308;28;20695;-71
2021/10/18 11:38:01;;;;;;;10.57;9.50;;;;;;;16.03;52.65;101893.50;5088513;28;20695;-73
2021/10/18 11:40:46;;;;;;;10.20;9.30;;;;;;;16.52;51.61;101887.56;5077470;28;20419;-71
2021/10/18 11:43:19;;;;;;;13.23;9.90;;;;;;;16.37;51.89;101876.09;5077602;28;20505;-73
2021/10/18 11:45:47;;;;;;;11.20;10.17;;;;;;;16.36;51.46;101879.63;5077511;28;20410;-72
2021/10/18 11:48:13;;;;;;;10.90;9.73;;;;;;;16.38;51.84;101879.63;5077151;28;20427;-73
2021/10/18 11:50:41;;;;;;;11.27;10.07;;;;;;;16.33;52.09;101882.22;5076955;28;20514;-72
2021/10/18 11:53:28;;;;;;;12.27;10.80;;;;;;;16.54;51.59;101876.19;5080828;28;20557;-68
2021/10/18 11:55:56;;;;;;;11.80;10.67;;;;;;;16.71;51.12;101880.59;5082545;28;20422;-71
2021/10/18 11:58:26;;;;;;;11.43;10.33;;;;;;;16.42;51.99;101874.38;5084368;28;20415;-70
2021/10/18 12:00:57;;;;;;;10.73;9.73;;;;;;;16.57;51.80;101870.03;5081504;28;20435;-70
2021/10/18 12:03:22;;;;;;;12.73;10.60;;;;;;;16.63;51.76;101872.72;5063578;28;20419;-70
2021/10/18 12:05:49;;;;;;;12.33;11.10;;;;;;;16.77;51.64;101868.34;5081350;28;20465;-73
2021/10/18 12:08:17;;;;;;;12.53;11.33;;;;;;;16.99;51.46;101865.75;5080929;28;20169;-73
2021/10/18 12:10:45;;;;;;;17.70;11.90;;;;;;;16.80;51.89;101863.06;5080734;28;20462;-75
2021/10/18 12:13:26;;;;;;;12.60;11.40;;;;;;;16.13;53.24;101872.50;5063950;28;20403;-71
2021/10/18 12:16:03;;;;;;;14.10;11.37;;;;;;;16.00;53.36;101870.69;5080963;28;20411;-70
2021/10/18 12:18:51;;;;;;;15.10;12.13;;;;;;;16.42;52.19;101855.94;5081049;28;20411;-72